createdAt,value
2018-12-26T00:00:38.483Z,18.23
2018-12-26T00:01:19.429Z,18.18
2018-12-26T00:02:00.011Z,18.21
2018-12-26T00:02:40.718Z,18.17
2018-12-26T00:03:21.515Z,18.26
2018-12-26T00:04:02.299Z,18.15
2018-12-26T00:04:43.151Z,18.17
2018-12-26T00:05:23.962Z,18.25
2018-12-26T00:06:04.648Z,18.17
2018-12-26T00:06:45.492Z,18.27
2018-12-26T00:07:26.248Z,18.25
2018-12-26T00:08:06.955Z,18.18
2018-12-26T00:08:47.693Z,18.21
2018-12-26T00:09:28.378Z,18.27
2018-12-26T00:10:09.206Z,18.25
2018-12-26T00:10:49.946Z,18.26
2018-12-26T00:11:30.693Z,18.29
2018-12-26T00:12:11.553Z,18.25
2018-12-26T00:12:52.407Z,18.17
2018-12-26T00:13:33.189Z,18.26
2018-12-26T00:14:13.914Z,18.25
2018-12-26T00:14:54.706Z,18.21
2018-12-26T00:15:35.465Z,18.2
2018-12-26T00:16:16.279Z,18.18
2018-12-26T00:16:57.047Z,18.26
2018-12-26T00:17:37.864Z,18.21
2018-12-26T00:18:18.645Z,18.2
2018-12-26T00:18:59.366Z,18.17
2018-12-26T00:19:40.228Z,18.21
2018-12-26T00:20:20.937Z,18.17
2018-12-26T00:21:01.688Z,18.2
2018-12-26T00:21:42.473Z,18.12
2018-12-26T00:22:23.239Z,18.18
2018-12-26T00:23:04.069Z,18.17
2018-12-26T00:23:44.844Z,18.12
2018-12-26T00:24:25.583Z,18.17
2018-12-26T00:25:06.341Z,18.17
2018-12-26T00:25:47.116Z,18.18
2018-12-26T00:26:27.960Z,18.18
2018-12-26T00:27:08.717Z,18.14
2018-12-26T00:27:49.429Z,18.12
2018-12-26T00:28:30.258Z,18.15
2018-12-26T00:29:11.015Z,18.12
2018-12-26T00:29:51.724Z,18.11
2018-12-26T00:30:32.441Z,18.15
2018-12-26T00:31:13.252Z,18.12
2018-12-26T00:31:54.109Z,18.11
2018-12-26T00:32:34.926Z,18.11
2018-12-26T00:33:15.804Z,18.15
2018-12-26T00:33:56.589Z,18.11
2018-12-26T00:34:37.334Z,18.15
2018-12-26T00:35:18.054Z,18.12
2018-12-26T00:35:58.817Z,18.14
2018-12-26T00:36:39.598Z,18.11
2018-12-26T00:37:20.352Z,18.11
2018-12-26T00:38:01.127Z,18.14
2018-12-26T00:38:41.927Z,18.1
2018-12-26T00:39:22.705Z,18.07
2018-12-26T00:40:03.458Z,18.11
2018-12-26T00:40:44.185Z,18.15
2018-12-26T00:41:25.011Z,18.11
2018-12-26T00:42:05.789Z,18.12
2018-12-26T00:42:46.560Z,18.15
2018-12-26T00:43:27.252Z,18.18
2018-12-26T00:44:07.964Z,18.08
2018-12-26T00:44:48.835Z,18.12
2018-12-26T00:45:29.737Z,18.1
2018-12-26T00:46:10.532Z,18.11
2018-12-26T00:46:51.401Z,18.08
2018-12-26T00:47:32.249Z,18.14
2018-12-26T00:48:13.280Z,18.14
2018-12-26T00:48:54.320Z,18.14
2018-12-26T00:49:35.151Z,18.12
2018-12-26T00:50:16.125Z,18.02
2018-12-26T00:50:57.082Z,18.11
2018-12-26T00:51:37.925Z,18.15
2018-12-26T00:52:18.819Z,18.15
2018-12-26T00:52:59.655Z,18.1
2018-12-26T00:53:40.419Z,18.14
2018-12-26T00:54:21.262Z,18.15
2018-12-26T00:55:02.048Z,18.1
2018-12-26T00:55:42.773Z,18.12
2018-12-26T00:56:23.525Z,18.17
2018-12-26T00:57:04.291Z,18.17
2018-12-26T00:57:45.061Z,18.14
2018-12-26T00:58:25.910Z,18.1
2018-12-26T00:59:06.707Z,18.15
2018-12-26T00:59:47.493Z,18.14
2018-12-26T01:00:28.189Z,18.11
2018-12-26T01:01:08.935Z,18.14
2018-12-26T01:01:49.680Z,18.07
2018-12-26T01:02:30.541Z,18.12
2018-12-26T01:03:11.261Z,18.15
2018-12-26T01:03:52.309Z,18.12
2018-12-26T01:04:33.109Z,18.05
2018-12-26T01:05:13.920Z,18.12
2018-12-26T01:05:54.743Z,18.1
2018-12-26T01:06:35.450Z,18.14
2018-12-26T01:07:16.198Z,18.11
2018-12-26T01:07:56.989Z,18.15
2018-12-26T01:08:37.812Z,18.1
2018-12-26T01:09:18.628Z,18.12
2018-12-26T01:09:59.524Z,18.15
2018-12-26T01:10:40.314Z,18.1
2018-12-26T01:11:21.039Z,18.12
2018-12-26T01:12:01.885Z,18.15
2018-12-26T01:12:42.638Z,18.07
2018-12-26T01:13:23.386Z,18.14
2018-12-26T01:14:04.095Z,18.15
2018-12-26T01:14:44.839Z,18.12
2018-12-26T01:15:25.648Z,18.15
2018-12-26T01:16:06.423Z,18.12
2018-12-26T01:16:47.141Z,18.11
2018-12-26T01:17:27.983Z,18.1
2018-12-26T01:18:08.811Z,18.11
2018-12-26T01:18:49.606Z,18.14
2018-12-26T01:19:30.341Z,18.1
2018-12-26T01:20:11.092Z,18.15
2018-12-26T01:20:51.925Z,18.17
2018-12-26T01:21:32.698Z,18.25
2018-12-26T01:22:13.430Z,18.17
2018-12-26T01:22:54.135Z,18.18
2018-12-26T01:23:34.912Z,18.12
2018-12-26T01:24:15.690Z,18.18
2018-12-26T01:24:56.468Z,18.17
2018-12-26T01:25:37.263Z,18.18
2018-12-26T01:26:19.163Z,18.15
2018-12-26T01:26:58.634Z,18.18
2018-12-26T01:27:39.410Z,18.1
2018-12-26T01:28:20.263Z,18.2
2018-12-26T01:29:01.002Z,18.15
2018-12-26T01:29:41.729Z,18.17
2018-12-26T01:30:22.511Z,18.1
2018-12-26T01:31:03.275Z,18.12
2018-12-26T01:31:44.097Z,18.14
2018-12-26T01:32:24.850Z,18.11
2018-12-26T01:33:05.584Z,18.1
2018-12-26T01:33:46.398Z,18.15
2018-12-26T01:34:27.084Z,18.11
2018-12-26T01:35:07.853Z,18.18
2018-12-26T01:35:48.684Z,18.08
2018-12-26T01:36:29.443Z,18.17
2018-12-26T01:37:10.150Z,18.11
2018-12-26T01:37:50.944Z,18.11
2018-12-26T01:38:31.730Z,18.12
2018-12-26T01:39:12.438Z,18.12
2018-12-26T01:39:53.191Z,18.11
2018-12-26T01:40:33.948Z,18.14
2018-12-26T01:41:14.772Z,18.15
2018-12-26T01:41:55.619Z,18.11
2018-12-26T01:42:36.438Z,18.1
2018-12-26T01:43:17.239Z,18.18
2018-12-26T01:43:58.012Z,18.12
2018-12-26T01:44:38.731Z,18.15
2018-12-26T01:45:19.500Z,18.12
2018-12-26T01:46:00.283Z,18.18
2018-12-26T01:46:41.027Z,18.1
2018-12-26T01:47:23.456Z,18.14
2018-12-26T01:48:04.259Z,18.1
2018-12-26T01:48:45.096Z,18.11
2018-12-26T01:49:25.871Z,18.15
2018-12-26T01:50:06.601Z,18.15
2018-12-26T01:50:47.411Z,18.14
2018-12-26T01:51:28.183Z,18.11
2018-12-26T01:52:08.893Z,18.18
2018-12-26T01:52:49.681Z,18.12
2018-12-26T01:53:30.425Z,18.15
2018-12-26T01:54:11.236Z,18.14
2018-12-26T01:54:52.049Z,18.12
2018-12-26T01:55:32.854Z,18.15
2018-12-26T01:56:13.578Z,18.17
2018-12-26T01:56:54.356Z,18.11
2018-12-26T01:57:35.162Z,18.21
2018-12-26T01:58:15.943Z,18.15
2018-12-26T01:58:56.654Z,18.14
2018-12-26T01:59:37.421Z,18.11
2018-12-26T02:00:18.164Z,18.12
2018-12-26T02:00:59.007Z,18.12
2018-12-26T02:01:39.822Z,18.12
2018-12-26T02:02:20.616Z,18.17
2018-12-26T02:03:01.411Z,18.17
2018-12-26T02:03:42.149Z,18.26
2018-12-26T02:04:22.957Z,18.15
2018-12-26T02:05:03.719Z,18.18
2018-12-26T02:05:44.506Z,18.2
2018-12-26T02:06:25.260Z,18.17
2018-12-26T02:07:05.976Z,18.17
2018-12-26T02:07:46.766Z,18.15
2018-12-26T02:08:27.637Z,18.17
2018-12-26T02:09:08.444Z,18.17
2018-12-26T02:09:49.129Z,18.17
2018-12-26T02:10:29.860Z,18.18
2018-12-26T02:11:10.600Z,18.17
2018-12-26T02:11:51.383Z,18.2
2018-12-26T02:12:32.195Z,18.17
2018-12-26T02:13:12.960Z,18.2
2018-12-26T02:13:53.781Z,18.2
2018-12-26T02:14:34.526Z,18.18
2018-12-26T02:15:15.390Z,18.27
2018-12-26T02:15:56.140Z,18.25
2018-12-26T02:16:36.857Z,18.15
2018-12-26T02:17:17.624Z,18.25
2018-12-26T02:17:58.539Z,18.21
2018-12-26T02:18:39.429Z,18.27
2018-12-26T02:19:20.228Z,18.18
2018-12-26T02:20:00.989Z,18.23
2018-12-26T02:20:41.729Z,18.27
2018-12-26T02:21:22.514Z,18.17
2018-12-26T02:22:03.300Z,18.25
2018-12-26T02:22:44.033Z,18.2
2018-12-26T02:23:24.783Z,18.2
2018-12-26T02:24:05.492Z,18.17
2018-12-26T02:24:46.291Z,18.18
2018-12-26T02:25:27.054Z,18.26
2018-12-26T02:26:07.781Z,18.17
2018-12-26T02:26:48.578Z,18.2
2018-12-26T02:27:29.326Z,18.2
2018-12-26T02:28:10.151Z,18.17
2018-12-26T02:28:50.898Z,18.2
2018-12-26T02:29:31.636Z,18.2
2018-12-26T02:30:12.492Z,18.21
2018-12-26T02:30:53.276Z,18.18
2018-12-26T02:31:33.995Z,18.21
2018-12-26T02:32:14.737Z,18.21
2018-12-26T02:32:55.408Z,18.23
2018-12-26T02:33:36.235Z,18.18
2018-12-26T02:34:17.031Z,18.25
2018-12-26T02:34:57.858Z,18.2
2018-12-26T02:35:45.280Z,18.15
2018-12-26T02:36:26.065Z,18.2
2018-12-26T02:37:06.783Z,18.21
2018-12-26T02:37:47.556Z,18.21
2018-12-26T02:38:28.388Z,18.25
2018-12-26T02:39:09.134Z,18.26
2018-12-26T02:39:49.952Z,18.23
2018-12-26T02:40:30.831Z,18.2
2018-12-26T02:41:11.499Z,18.27
2018-12-26T02:41:52.287Z,18.21
2018-12-26T02:42:32.992Z,18.17
2018-12-26T02:43:13.805Z,18.21
2018-12-26T02:43:54.622Z,18.17
2018-12-26T02:44:35.371Z,18.23
2018-12-26T02:45:16.122Z,18.23
2018-12-26T02:45:56.831Z,18.21
2018-12-26T02:46:37.667Z,18.29
2018-12-26T02:47:18.496Z,18.21
2018-12-26T02:47:59.182Z,18.23
2018-12-26T02:48:39.959Z,18.23
2018-12-26T02:49:20.802Z,18.23
2018-12-26T02:50:01.614Z,18.2
2018-12-26T02:50:42.351Z,18.2
2018-12-26T02:51:23.067Z,18.21
2018-12-26T02:52:03.809Z,18.18
2018-12-26T02:52:44.536Z,18.29
2018-12-26T02:53:25.322Z,18.18
2018-12-26T02:54:06.141Z,18.27
2018-12-26T02:54:46.962Z,18.2
2018-12-26T02:55:27.697Z,18.2
2018-12-26T02:56:08.459Z,18.25
2018-12-26T02:56:49.265Z,18.27
2018-12-26T02:57:29.968Z,18.25
2018-12-26T02:58:10.676Z,18.23
2018-12-26T02:58:51.391Z,18.23
2018-12-26T02:59:32.558Z,18.23
2018-12-26T03:00:13.472Z,18.18
2018-12-26T03:00:54.304Z,18.26
2018-12-26T03:01:35.128Z,18.17
2018-12-26T03:02:15.909Z,18.23
2018-12-26T03:02:56.773Z,18.2
2018-12-26T03:03:37.560Z,18.25
2018-12-26T03:04:18.303Z,18.21
2018-12-26T03:04:59.094Z,18.26
2018-12-26T03:05:39.874Z,18.27
2018-12-26T03:06:20.551Z,18.26
2018-12-26T03:07:01.268Z,18.18
2018-12-26T03:07:42.020Z,18.26
2018-12-26T03:08:22.807Z,18.23
2018-12-26T03:09:03.612Z,18.18
2018-12-26T03:09:44.433Z,18.29
2018-12-26T03:10:25.156Z,18.27
2018-12-26T03:11:05.924Z,18.2
2018-12-26T03:11:46.679Z,18.25
2018-12-26T03:12:27.487Z,18.17
2018-12-26T03:13:08.320Z,18.26
2018-12-26T03:13:49.104Z,18.25
2018-12-26T03:14:29.812Z,18.23
2018-12-26T03:15:10.639Z,18.25
2018-12-26T03:15:51.425Z,18.25
2018-12-26T03:16:32.226Z,18.25
2018-12-26T03:17:12.937Z,18.21
2018-12-26T03:17:53.677Z,18.27
2018-12-26T03:18:34.486Z,18.25
2018-12-26T03:19:15.300Z,18.18
2018-12-26T03:19:56.132Z,18.25
2018-12-26T03:20:36.939Z,18.23
2018-12-26T03:21:17.728Z,18.27
2018-12-26T03:21:58.631Z,18.25
2018-12-26T03:23:38.608Z,18.25
2018-12-26T03:25:29.422Z,18.2
2018-12-26T03:26:10.278Z,18.26
2018-12-26T03:26:55.932Z,18.23
2018-12-26T03:27:31.857Z,18.26
2018-12-26T03:28:12.819Z,18.21
2018-12-26T03:28:53.565Z,18.21
2018-12-26T03:29:34.327Z,18.2
2018-12-26T03:30:15.169Z,18.25
2018-12-26T03:30:55.923Z,18.21
2018-12-26T03:31:36.681Z,18.26
2018-12-26T03:32:17.494Z,18.2
2018-12-26T03:32:58.292Z,18.25
2018-12-26T03:33:39.079Z,18.27
2018-12-26T03:34:19.825Z,18.21
2018-12-26T03:35:00.529Z,18.27
2018-12-26T03:35:41.299Z,18.26
2018-12-26T03:36:22.123Z,18.2
2018-12-26T03:37:02.809Z,18.23
2018-12-26T03:37:43.685Z,18.3
2018-12-26T03:38:24.439Z,18.21
2018-12-26T03:39:06.200Z,18.25
2018-12-26T03:39:47.036Z,18.21
2018-12-26T03:40:27.769Z,18.29
2018-12-26T03:41:08.465Z,18.25
2018-12-26T03:41:49.228Z,18.26
2018-12-26T03:42:29.908Z,18.25
2018-12-26T03:43:10.705Z,18.26
2018-12-26T03:43:51.509Z,18.27
2018-12-26T03:44:32.362Z,18.23
2018-12-26T03:45:13.108Z,18.17
2018-12-26T03:45:53.838Z,18.3
2018-12-26T03:46:34.581Z,18.21
2018-12-26T03:47:15.371Z,18.25
2018-12-26T03:47:56.177Z,18.27
2018-12-26T03:48:36.934Z,18.18
2018-12-26T03:49:17.794Z,18.21
2018-12-26T03:49:58.580Z,18.27
2018-12-26T03:50:39.417Z,18.21
2018-12-26T03:51:20.166Z,18.27
2018-12-26T03:52:02.182Z,18.27
2018-12-26T03:52:41.642Z,18.26
2018-12-26T03:53:22.407Z,18.29
2018-12-26T03:54:03.230Z,18.29
2018-12-26T03:54:44.138Z,18.25
2018-12-26T03:55:25.008Z,18.21
2018-12-26T03:56:05.805Z,18.32
2018-12-26T03:56:46.885Z,18.18
2018-12-26T03:57:27.744Z,18.35
2018-12-26T03:58:08.508Z,18.29
2018-12-26T03:58:49.268Z,18.32
2018-12-26T03:59:30.035Z,18.3
2018-12-26T04:00:10.788Z,18.21
2018-12-26T04:00:51.626Z,18.23
2018-12-26T04:01:32.398Z,18.23
2018-12-26T04:02:13.080Z,18.23
2018-12-26T04:02:53.859Z,18.27
2018-12-26T04:03:34.643Z,18.27
2018-12-26T04:04:15.445Z,18.23
2018-12-26T04:04:56.185Z,18.2
2018-12-26T04:05:36.887Z,18.32
2018-12-26T04:06:17.714Z,18.32
2018-12-26T04:06:58.493Z,18.3
2018-12-26T04:07:39.221Z,18.29
2018-12-26T04:08:19.945Z,18.33
2018-12-26T04:09:00.693Z,18.29
2018-12-26T04:09:41.532Z,18.35
2018-12-26T04:10:22.307Z,18.26
2018-12-26T04:11:03.130Z,18.32
2018-12-26T04:11:43.853Z,18.25
2018-12-26T04:12:24.549Z,18.35
2018-12-26T04:13:05.279Z,18.26
2018-12-26T04:13:46.103Z,18.35
2018-12-26T04:14:26.908Z,18.23
2018-12-26T04:15:07.587Z,18.27
2018-12-26T04:15:48.482Z,18.33
2018-12-26T04:16:29.193Z,18.29
2018-12-26T04:17:10.034Z,18.35
2018-12-26T04:17:50.798Z,18.32
2018-12-26T04:18:31.493Z,18.25
2018-12-26T04:19:12.232Z,18.21
2018-12-26T04:19:52.943Z,18.36
2018-12-26T04:20:33.721Z,18.33
2018-12-26T04:21:14.542Z,18.29
2018-12-26T04:21:55.357Z,18.29
2018-12-26T04:22:36.084Z,18.32
2018-12-26T04:23:16.846Z,18.32
2018-12-26T04:23:57.792Z,18.18
2018-12-26T04:24:38.413Z,18.3
2018-12-26T04:25:19.161Z,18.32
2018-12-26T04:25:59.904Z,18.32
2018-12-26T04:26:40.727Z,18.29
2018-12-26T04:27:21.605Z,18.29
2018-12-26T04:28:02.389Z,18.32
2018-12-26T04:28:43.127Z,18.3
2018-12-26T04:29:23.862Z,18.33
2018-12-26T04:30:04.563Z,18.36
2018-12-26T04:30:45.318Z,18.33
2018-12-26T04:31:26.157Z,18.3
2018-12-26T04:32:06.954Z,18.3
2018-12-26T04:32:47.652Z,18.32
2018-12-26T04:33:28.483Z,18.32
2018-12-26T04:34:09.276Z,18.29
2018-12-26T04:34:50.105Z,18.25
2018-12-26T04:35:30.865Z,18.36
2018-12-26T04:36:11.580Z,18.36
2018-12-26T04:36:52.364Z,18.32
2018-12-26T04:37:33.127Z,18.29
2018-12-26T04:38:13.869Z,18.3
2018-12-26T04:38:54.705Z,18.35
2018-12-26T04:39:35.471Z,18.32
2018-12-26T04:40:16.272Z,18.32
2018-12-26T04:40:57.014Z,18.3
2018-12-26T04:41:37.792Z,18.32
2018-12-26T04:42:18.589Z,18.3
2018-12-26T04:43:00.414Z,18.3
2018-12-26T04:43:41.227Z,18.29
2018-12-26T04:44:21.893Z,18.33
2018-12-26T04:45:03.204Z,18.29
2018-12-26T04:45:43.983Z,18.29
2018-12-26T04:46:24.763Z,18.33
2018-12-26T04:47:05.619Z,18.33
2018-12-26T04:47:46.380Z,18.29
2018-12-26T04:48:27.151Z,18.35
2018-12-26T04:49:07.883Z,18.35
2018-12-26T04:49:48.693Z,18.32
2018-12-26T04:50:29.466Z,18.3
2018-12-26T04:51:10.217Z,18.3
2018-12-26T04:51:50.906Z,18.27
2018-12-26T04:52:31.667Z,18.36
2018-12-26T04:53:12.482Z,18.29
2018-12-26T04:53:53.365Z,18.27
2018-12-26T04:54:34.245Z,18.26
2018-12-26T04:55:14.899Z,18.32
2018-12-26T04:55:56.279Z,18.27
2018-12-26T04:56:37.004Z,18.27
2018-12-26T04:57:24.605Z,18.33
2018-12-26T04:57:58.770Z,18.29
2018-12-26T04:58:39.482Z,18.32
2018-12-26T04:59:20.234Z,18.36
2018-12-26T05:00:01.028Z,18.33
2018-12-26T05:00:41.807Z,18.27
2018-12-26T05:01:22.630Z,18.3
2018-12-26T05:02:03.388Z,18.3
2018-12-26T05:02:44.164Z,18.29
2018-12-26T05:03:24.888Z,18.35
2018-12-26T05:04:05.707Z,18.36
2018-12-26T05:04:47.411Z,18.32
2018-12-26T05:05:28.220Z,18.32
2018-12-26T05:06:08.934Z,18.33
2018-12-26T05:06:49.677Z,18.33
2018-12-26T05:07:30.563Z,18.33
2018-12-26T05:08:11.836Z,18.32
2018-12-26T05:08:52.582Z,18.27
2018-12-26T05:09:33.331Z,18.3
2018-12-26T05:10:14.107Z,18.29
2018-12-26T05:10:55.330Z,18.35
2018-12-26T05:11:36.000Z,18.36
2018-12-26T05:12:16.710Z,18.3
2018-12-26T05:12:57.548Z,18.32
2018-12-26T05:13:39.822Z,18.32
2018-12-26T05:14:20.624Z,18.33
2018-12-26T05:15:01.348Z,18.32
2018-12-26T05:15:42.109Z,18.35
2018-12-26T05:16:22.948Z,18.33
2018-12-26T05:17:03.692Z,18.35
2018-12-26T05:17:44.449Z,18.33
2018-12-26T05:18:25.178Z,18.33
2018-12-26T05:19:05.964Z,18.3
2018-12-26T05:19:46.810Z,18.35
2018-12-26T05:20:27.640Z,18.35
2018-12-26T05:21:08.456Z,18.3
2018-12-26T05:21:49.117Z,18.3
2018-12-26T05:22:29.851Z,18.32
2018-12-26T05:23:10.640Z,18.33
2018-12-26T05:23:51.450Z,18.35
2018-12-26T05:24:32.156Z,18.33
2018-12-26T05:25:12.897Z,18.33
2018-12-26T05:25:53.720Z,18.32
2018-12-26T05:26:34.547Z,18.27
2018-12-26T05:27:15.396Z,18.33
2018-12-26T05:27:56.155Z,18.35
2018-12-26T05:28:36.952Z,18.36
2018-12-26T05:29:17.778Z,18.32
2018-12-26T05:29:58.520Z,18.36
2018-12-26T05:30:39.251Z,18.36
2018-12-26T05:31:19.963Z,18.33
2018-12-26T05:32:00.691Z,18.33
2018-12-26T05:32:41.534Z,18.33
2018-12-26T05:33:22.260Z,18.33
2018-12-26T05:34:02.996Z,18.29
2018-12-26T05:34:43.826Z,18.33
2018-12-26T05:35:24.629Z,18.33
2018-12-26T05:36:05.482Z,18.3
2018-12-26T05:36:46.225Z,18.35
2018-12-26T05:37:26.978Z,18.3
2018-12-26T05:38:07.730Z,18.27
2018-12-26T05:38:48.604Z,18.36
2018-12-26T05:39:29.460Z,18.33
2018-12-26T05:40:10.274Z,18.35
2018-12-26T05:40:51.023Z,18.35
2018-12-26T05:41:31.812Z,18.33
2018-12-26T05:42:12.699Z,18.33
2018-12-26T05:42:53.464Z,18.33
2018-12-26T05:43:34.212Z,18.35
2018-12-26T05:44:14.923Z,18.33
2018-12-26T05:44:55.720Z,18.33
2018-12-26T05:45:36.535Z,18.35
2018-12-26T05:46:17.260Z,18.27
2018-12-26T05:46:57.972Z,18.29
2018-12-26T05:47:38.841Z,18.29
2018-12-26T05:48:19.582Z,18.36
2018-12-26T05:49:00.408Z,18.33
2018-12-26T05:49:41.097Z,18.33
2018-12-26T05:50:21.870Z,18.36
2018-12-26T05:51:02.709Z,18.29
2018-12-26T05:51:43.493Z,18.37
2018-12-26T05:52:24.200Z,18.32
2018-12-26T05:53:04.951Z,18.27
2018-12-26T05:53:45.728Z,18.3
2018-12-26T05:54:26.563Z,18.36
2018-12-26T05:55:07.393Z,18.33
2018-12-26T05:55:48.163Z,18.29
2018-12-26T05:56:28.938Z,18.3
2018-12-26T05:57:09.669Z,18.33
2018-12-26T05:57:50.417Z,18.33
2018-12-26T05:58:31.275Z,18.33
2018-12-26T05:59:12.063Z,18.33
2018-12-26T05:59:52.833Z,18.3
2018-12-26T06:00:33.641Z,18.27
2018-12-26T06:01:14.441Z,18.33
2018-12-26T06:01:55.229Z,18.36
2018-12-26T06:02:35.991Z,18.35
2018-12-26T06:03:16.675Z,18.27
2018-12-26T06:03:57.465Z,18.25
2018-12-26T06:04:38.246Z,18.33
2018-12-26T06:05:19.122Z,18.3
2018-12-26T06:05:59.986Z,18.41
2018-12-26T06:06:40.738Z,18.29
2018-12-26T06:07:21.488Z,18.39
2018-12-26T06:08:02.249Z,18.33
2018-12-26T06:08:43.058Z,18.33
2018-12-26T06:09:23.749Z,18.33
2018-12-26T06:10:04.479Z,18.27
2018-12-26T06:10:45.172Z,18.3
2018-12-26T06:11:26.021Z,18.29
2018-12-26T06:12:06.814Z,18.33
2018-12-26T06:12:47.622Z,18.35
2018-12-26T06:13:28.357Z,18.35
2018-12-26T06:14:09.071Z,18.36
2018-12-26T06:14:49.814Z,18.33
2018-12-26T06:15:30.556Z,18.36
2018-12-26T06:16:11.358Z,18.3
2018-12-26T06:16:52.058Z,18.35
2018-12-26T06:17:32.822Z,18.33
2018-12-26T06:18:13.617Z,18.29
2018-12-26T06:18:54.389Z,18.35
2018-12-26T06:19:35.153Z,18.27
2018-12-26T06:20:15.855Z,18.39
2018-12-26T06:20:56.586Z,18.36
2018-12-26T06:21:37.411Z,18.36
2018-12-26T06:22:18.103Z,18.33
2018-12-26T06:22:58.827Z,18.33
2018-12-26T06:23:39.587Z,18.33
2018-12-26T06:24:20.433Z,18.33
2018-12-26T06:25:01.288Z,18.35
2018-12-26T06:25:41.993Z,18.35
2018-12-26T06:26:22.771Z,18.33
2018-12-26T06:27:03.582Z,18.32
2018-12-26T06:27:51.338Z,18.3
2018-12-26T06:28:25.131Z,18.3
2018-12-26T06:29:05.854Z,18.29
2018-12-26T06:29:46.589Z,18.36
2018-12-26T06:30:27.358Z,18.33
2018-12-26T06:31:08.181Z,18.3
2018-12-26T06:31:48.958Z,18.27
2018-12-26T06:32:29.766Z,18.36
2018-12-26T06:33:10.478Z,18.32
2018-12-26T06:33:51.227Z,18.3
2018-12-26T06:34:32.063Z,18.33
2018-12-26T06:35:12.778Z,18.26
2018-12-26T06:35:53.524Z,18.37
2018-12-26T06:36:34.193Z,18.33
2018-12-26T06:37:14.935Z,18.33
2018-12-26T06:37:55.768Z,18.29
2018-12-26T06:38:36.624Z,18.36
2018-12-26T06:39:17.322Z,18.33
2018-12-26T06:39:58.034Z,18.33
2018-12-26T06:40:38.775Z,18.32
2018-12-26T06:41:19.522Z,18.33
2018-12-26T06:42:00.406Z,18.33
2018-12-26T06:42:41.208Z,18.27
2018-12-26T06:43:21.869Z,18.32
2018-12-26T06:44:02.700Z,18.37
2018-12-26T06:44:43.514Z,18.35
2018-12-26T06:45:24.286Z,18.26
2018-12-26T06:46:05.012Z,18.33
2018-12-26T06:46:45.732Z,18.26
2018-12-26T06:47:26.438Z,18.33
2018-12-26T06:48:07.264Z,18.33
2018-12-26T06:48:48.064Z,18.36
2018-12-26T06:49:28.914Z,18.32
2018-12-26T06:50:09.641Z,18.32
2018-12-26T06:50:50.365Z,18.33
2018-12-26T06:51:31.168Z,18.33
2018-12-26T06:52:11.948Z,18.36
2018-12-26T06:52:52.663Z,18.35
2018-12-26T06:53:33.399Z,18.36
2018-12-26T06:54:14.111Z,18.36
2018-12-26T06:54:54.928Z,18.29
2018-12-26T06:55:35.685Z,18.33
2018-12-26T06:56:16.442Z,18.3
2018-12-26T06:56:57.252Z,18.3
2018-12-26T06:57:38.024Z,18.32
2018-12-26T06:58:18.843Z,18.29
2018-12-26T06:58:59.574Z,18.33
2018-12-26T06:59:40.332Z,18.36
2018-12-26T07:00:21.159Z,18.29
2018-12-26T07:01:01.897Z,18.36
2018-12-26T07:01:42.648Z,18.35
2018-12-26T07:02:23.364Z,18.32
2018-12-26T07:03:04.169Z,18.32
2018-12-26T07:03:44.961Z,18.33
2018-12-26T07:04:25.771Z,18.33
2018-12-26T07:05:06.555Z,18.35
2018-12-26T07:05:47.266Z,18.25
2018-12-26T07:06:28.038Z,18.32
2018-12-26T07:07:08.787Z,18.33
2018-12-26T07:07:49.566Z,18.36
2018-12-26T07:08:30.285Z,18.29
2018-12-26T07:09:11.007Z,18.33
2018-12-26T07:09:51.823Z,18.33
2018-12-26T07:10:32.608Z,18.33
2018-12-26T07:11:13.411Z,18.29
2018-12-26T07:11:54.176Z,18.32
2018-12-26T07:12:34.893Z,18.33
2018-12-26T07:13:15.619Z,18.29
2018-12-26T07:13:56.393Z,18.33
2018-12-26T07:14:37.221Z,18.33
2018-12-26T07:15:18.180Z,18.33
2018-12-26T07:15:58.963Z,18.27
2018-12-26T07:16:39.641Z,18.36
2018-12-26T07:17:20.431Z,18.37
2018-12-26T07:18:01.177Z,18.33
2018-12-26T07:18:41.911Z,18.29
2018-12-26T07:19:22.653Z,18.35
2018-12-26T07:20:03.373Z,18.39
2018-12-26T07:20:44.180Z,18.41
2018-12-26T07:21:24.918Z,18.29
2018-12-26T07:22:05.770Z,18.29
2018-12-26T07:22:46.532Z,18.35
2018-12-26T07:23:27.264Z,18.3
2018-12-26T07:24:07.963Z,18.36
2018-12-26T07:24:48.755Z,18.32
2018-12-26T07:25:29.569Z,18.29
2018-12-26T07:26:10.337Z,18.33
2018-12-26T07:26:51.071Z,18.35
2018-12-26T07:27:31.918Z,18.36
2018-12-26T07:28:12.777Z,18.3
2018-12-26T07:28:53.521Z,18.27
2018-12-26T07:29:34.234Z,18.35
2018-12-26T07:30:15.015Z,18.33
2018-12-26T07:30:55.797Z,18.3
2018-12-26T07:31:36.553Z,18.3
2018-12-26T07:32:17.277Z,18.3
2018-12-26T07:32:58.032Z,18.37
2018-12-26T07:33:38.800Z,18.37
2018-12-26T07:34:19.592Z,18.3
2018-12-26T07:35:00.437Z,18.35
2018-12-26T07:35:41.314Z,18.3
2018-12-26T07:36:22.078Z,18.35
2018-12-26T07:37:02.893Z,18.42
2018-12-26T07:37:43.697Z,18.35
2018-12-26T07:38:24.443Z,18.39
2018-12-26T07:39:05.222Z,18.39
2018-12-26T07:39:45.943Z,18.3
2018-12-26T07:40:26.837Z,18.39
2018-12-26T07:41:07.667Z,18.32
2018-12-26T07:41:48.439Z,18.32
2018-12-26T07:42:29.233Z,18.39
2018-12-26T07:43:09.989Z,18.36
2018-12-26T07:43:50.821Z,18.41
2018-12-26T07:44:31.565Z,18.29
2018-12-26T07:45:12.263Z,18.32
2018-12-26T07:45:53.000Z,18.32
2018-12-26T07:46:33.764Z,18.29
2018-12-26T07:47:14.566Z,18.32
2018-12-26T07:47:55.331Z,18.35
2018-12-26T07:48:36.077Z,18.33
2018-12-26T07:49:16.865Z,18.33
2018-12-26T07:49:57.661Z,18.32
2018-12-26T07:50:38.584Z,18.33
2018-12-26T07:51:19.330Z,18.27
2018-12-26T07:52:00.051Z,18.32
2018-12-26T07:52:40.856Z,18.35
2018-12-26T07:53:21.594Z,18.39
2018-12-26T07:54:02.334Z,18.44
2018-12-26T07:54:43.087Z,18.35
2018-12-26T07:55:23.827Z,18.33
2018-12-26T07:56:04.649Z,18.27
2018-12-26T07:56:45.499Z,18.41
2018-12-26T07:57:26.225Z,18.32
2018-12-26T07:58:06.991Z,18.29
2018-12-26T07:58:47.713Z,18.41
2018-12-26T07:59:28.422Z,18.45
2018-12-26T08:00:09.260Z,18.45
2018-12-26T08:00:50.059Z,18.32
2018-12-26T08:01:30.784Z,18.39
2018-12-26T08:02:11.614Z,18.39
2018-12-26T08:02:52.428Z,18.37
2018-12-26T08:03:33.353Z,18.39
2018-12-26T08:04:14.089Z,18.44
2018-12-26T08:04:54.872Z,18.29
2018-12-26T08:05:35.705Z,18.36
2018-12-26T08:06:16.431Z,18.36
2018-12-26T08:06:57.218Z,18.39
2018-12-26T08:07:37.920Z,18.39
2018-12-26T08:08:18.670Z,18.39
2018-12-26T08:08:59.449Z,18.41
2018-12-26T08:09:40.205Z,18.42
2018-12-26T08:10:20.938Z,18.44
2018-12-26T08:11:01.763Z,18.41
2018-12-26T08:11:42.603Z,18.42
2018-12-26T08:12:23.417Z,18.36
2018-12-26T08:13:04.203Z,18.35
2018-12-26T08:13:44.969Z,18.37
2018-12-26T08:14:25.697Z,18.33
2018-12-26T08:15:10.413Z,18.36
2018-12-26T08:15:47.286Z,18.32
2018-12-26T08:16:28.161Z,18.29
2018-12-26T08:17:08.943Z,18.33
2018-12-26T08:17:49.692Z,18.42
2018-12-26T08:18:30.524Z,18.39
2018-12-26T08:19:11.290Z,18.39
2018-12-26T08:19:51.987Z,18.44
2018-12-26T08:20:32.751Z,18.39
2018-12-26T08:21:13.484Z,18.33
2018-12-26T08:21:54.389Z,18.36
2018-12-26T08:22:35.195Z,18.39
2018-12-26T08:23:16.032Z,18.41
2018-12-26T08:23:56.720Z,18.36
2018-12-26T08:24:37.444Z,18.35
2018-12-26T08:25:18.179Z,18.41
2018-12-26T08:25:58.982Z,18.39
2018-12-26T08:26:39.828Z,18.45
2018-12-26T08:27:20.505Z,18.39
2018-12-26T08:28:01.236Z,18.42
2018-12-26T08:28:42.031Z,18.42
2018-12-26T08:29:22.846Z,18.45
2018-12-26T08:30:03.607Z,18.41
2018-12-26T08:30:44.298Z,18.37
2018-12-26T08:31:24.995Z,18.37
2018-12-26T08:32:05.817Z,18.39
2018-12-26T08:32:46.635Z,18.35
2018-12-26T08:33:27.410Z,18.36
2018-12-26T08:34:08.250Z,18.3
2018-12-26T08:34:48.956Z,18.35
2018-12-26T08:35:29.742Z,18.32
2018-12-26T08:36:10.678Z,18.25
2018-12-26T08:36:51.348Z,18.33
2018-12-26T08:37:32.102Z,18.33
2018-12-26T08:38:12.836Z,18.32
2018-12-26T08:38:53.623Z,18.32
2018-12-26T08:39:34.479Z,18.33
2018-12-26T08:40:15.388Z,18.23
2018-12-26T08:40:56.140Z,18.3
2018-12-26T08:41:36.963Z,18.26
2018-12-26T08:42:17.830Z,18.35
2018-12-26T08:42:58.648Z,18.3
2018-12-26T08:43:39.341Z,18.27
2018-12-26T08:44:20.074Z,18.3
2018-12-26T08:45:00.911Z,18.33
2018-12-26T08:45:41.761Z,18.27
2018-12-26T08:46:22.514Z,18.33
2018-12-26T08:47:03.232Z,18.27
2018-12-26T08:47:44.045Z,18.18
2018-12-26T08:48:24.808Z,18.33
2018-12-26T08:49:05.642Z,18.3
2018-12-26T08:49:46.409Z,18.3